PWSweather.com
Personal Weather Stations
Station Observations
ISTOCKPO4
Cheadle HulmeGB SK8 6NZ

Cheadle HulmeGB SK8 6NZ

Lat: 53.363783, Lon: -2.1948438

Elevation: 261

Station Type: Davis VP2 with Daytime FARS

http://www.cheadlehulmeweather.co.uk

High Low Average
Temperature 47.1°F8.4°C 41.7°F5.4°C 44.3°F6.8°C
Dew Point 43.7°F6.5°C 39.6°F4.2°C 41.8°F5.4°C
Winds 9.0 mph 14.5 kmh 1.0 mph 1.6 kmh 6.0 mph SE9.7 kmh SE
Wind Gusts 18.0 mph29.0 kmh 3.0 mph4.8 kmh 11.0 mph17.7 kmh
Humidity 93% 87% 91%
Pressure 29.53 in1000.0 mb 29.14 in986.8 mb -
Precipitation 0.38 in9.7 mm - -
Hour Temp Dew Point Humidity Winds Wind Gusts Pressure Precip Precip Rate Daily Precip Total
12:00 AM 46.6°F8.1°C 43.2°F6.2°C 88% 6.0 mph E9.7 kmh E 16.0 mph25.7 kmh 29.16 in987.5 mb 0.00 in0.0 mm 0.00 in0.0 mm 0.00 in0.0 mm
12:15 AM 46.6°F8.1°C 43.2°F6.2°C 88% 7.0 mph E11.3 kmh E 11.0 mph17.7 kmh 29.16 in987.5 mb 0.00 in0.0 mm 0.00 in0.0 mm 0.00 in0.0 mm
12:30 AM 46.6°F8.1°C 43.2°F6.2°C 88% 4.0 mph NE6.4 kmh NE 9.0 mph14.5 kmh 29.16 in987.5 mb 0.00 in0.0 mm 0.00 in0.0 mm 0.00 in0.0 mm
12:45 AM 46.4°F8.0°C 42.7°F5.9°C 87% 6.0 mph NE9.7 kmh NE 10.0 mph16.1 kmh 29.16 in987.5 mb 0.00 in0.0 mm 0.00 in0.0 mm 0.00 in0.0 mm
01:00 AM 46.2°F7.9°C 42.6°F5.9°C 87% 7.0 mph E11.3 kmh E 15.0 mph24.1 kmh 29.15 in987.1 mb 0.00 in0.0 mm 0.00 in0.0 mm 0.00 in0.0 mm
01:15 AM 45.9°F7.7°C 42.8°F6.0°C 89% 5.0 mph E8.0 kmh E 10.0 mph16.1 kmh 29.15 in987.1 mb 0.01 in0.3 mm 0.04 in1.0 mm 0.01 in0.3 mm
01:30 AM 45.7°F7.6°C 42.9°F6.1°C 90% 3.0 mph NE4.8 kmh NE 7.0 mph11.3 kmh 29.15 in987.1 mb 0.01 in0.3 mm 0.00 in0.0 mm 0.01 in0.3 mm
01:45 AM 45.3°F7.4°C 42.8°F6.0°C 91% 3.0 mph NE4.8 kmh NE 7.0 mph11.3 kmh 29.15 in987.1 mb 0.01 in0.3 mm 0.00 in0.0 mm 0.01 in0.3 mm
02:00 AM 45.1°F7.3°C 43.0°F6.1°C 92% 4.0 mph ENE6.4 kmh ENE 9.0 mph14.5 kmh 29.15 in987.1 mb 0.02 in0.5 mm 0.01 in0.3 mm 0.02 in0.5 mm
02:15 AM 45.0°F7.2°C 42.8°F6.0°C 92% 5.0 mph ENE8.0 kmh ENE 10.0 mph16.1 kmh 29.15 in987.1 mb 0.01 in0.3 mm 0.00 in0.0 mm 0.02 in0.5 mm
02:30 AM 45.0°F7.2°C 42.8°F6.0°C 92% 5.0 mph ENE8.0 kmh ENE 9.0 mph14.5 kmh 29.15 in987.1 mb 0.02 in0.5 mm 0.04 in1.0 mm 0.03 in0.8 mm
02:45 AM 44.8°F7.1°C 42.6°F5.9°C 92% 5.0 mph ENE8.0 kmh ENE 9.0 mph14.5 kmh 29.14 in986.8 mb 0.03 in0.8 mm 0.04 in1.0 mm 0.04 in1.0 mm
03:00 AM 44.4°F6.9°C 42.2°F5.7°C 92% 5.0 mph NE8.0 kmh NE 10.0 mph16.1 kmh 29.14 in986.8 mb 0.04 in1.0 mm 0.01 in0.3 mm 0.06 in1.5 mm
03:15 AM 44.2°F6.8°C 42.1°F5.6°C 92% 6.0 mph NE9.7 kmh NE 9.0 mph14.5 kmh 29.14 in986.8 mb 0.06 in1.5 mm 0.08 in2.0 mm 0.08 in2.0 mm
03:30 AM 43.9°F6.6°C 41.7°F5.4°C 92% 7.0 mph NE11.3 kmh NE 11.0 mph17.7 kmh 29.14 in986.8 mb 0.06 in1.5 mm 0.00 in0.0 mm 0.09 in2.3 mm
03:45 AM 43.5°F6.4°C 41.4°F5.2°C 92% 7.0 mph NE11.3 kmh NE 12.0 mph19.3 kmh 29.14 in986.8 mb 0.06 in1.5 mm 0.00 in0.0 mm 0.10 in2.5 mm
04:00 AM 43.3°F6.3°C 41.2°F5.1°C 92% 8.0 mph NE12.9 kmh NE 13.0 mph20.9 kmh 29.14 in986.8 mb 0.06 in1.5 mm 0.00 in0.0 mm 0.12 in3.0 mm
04:15 AM 43.2°F6.2°C 41.3°F5.2°C 93% 8.0 mph NE12.9 kmh NE 14.0 mph22.5 kmh 29.14 in986.8 mb 0.04 in1.0 mm 0.00 in0.0 mm 0.12 in3.0 mm
04:30 AM 43.2°F6.2°C 41.3°F5.2°C 93% 8.0 mph NE12.9 kmh NE 15.0 mph24.1 kmh 29.14 in986.8 mb 0.05 in1.3 mm 0.04 in1.0 mm 0.14 in3.6 mm
04:45 AM 43.0°F6.1°C 41.1°F5.1°C 93% 7.0 mph NE11.3 kmh NE 13.0 mph20.9 kmh 29.14 in986.8 mb 0.04 in1.0 mm 0.00 in0.0 mm 0.14 in3.6 mm
05:00 AM 43.0°F6.1°C 41.1°F5.1°C 93% 7.0 mph NE11.3 kmh NE 12.0 mph19.3 kmh 29.14 in986.8 mb 0.02 in0.5 mm 0.00 in0.0 mm 0.14 in3.6 mm
05:15 AM 43.0°F6.1°C 41.1°F5.1°C 93% 6.0 mph NE9.7 kmh NE 9.0 mph14.5 kmh 29.14 in986.8 mb 0.03 in0.8 mm 0.04 in1.0 mm 0.15 in3.8 mm
05:30 AM 43.2°F6.2°C 41.3°F5.2°C 93% 7.0 mph NE11.3 kmh NE 12.0 mph19.3 kmh 29.14 in986.8 mb 0.01 in0.3 mm 0.00 in0.0 mm 0.15 in3.8 mm
05:45 AM 43.2°F6.2°C 41.3°F5.2°C 93% 7.0 mph NE11.3 kmh NE 13.0 mph20.9 kmh 29.14 in986.8 mb 0.02 in0.5 mm 0.04 in1.0 mm 0.16 in4.1 mm
06:00 AM 43.2°F6.2°C 41.3°F5.2°C 93% 7.0 mph NE11.3 kmh NE 11.0 mph17.7 kmh 29.14 in986.8 mb 0.03 in0.8 mm 0.01 in0.3 mm 0.17 in4.3 mm
06:15 AM 43.2°F6.2°C 41.3°F5.2°C 93% 8.0 mph NE12.9 kmh NE 17.0 mph27.4 kmh 29.14 in986.8 mb 0.03 in0.8 mm 0.00 in0.0 mm 0.18 in4.6 mm
06:30 AM 43.2°F6.2°C 41.3°F5.2°C 93% 8.0 mph NE12.9 kmh NE 14.0 mph22.5 kmh 29.15 in987.1 mb 0.04 in1.0 mm 0.04 in1.0 mm 0.19 in4.8 mm
06:45 AM 43.2°F6.2°C 41.3°F5.2°C 93% 7.0 mph NE11.3 kmh NE 16.0 mph25.7 kmh 29.15 in987.1 mb 0.04 in1.0 mm 0.00 in0.0 mm 0.20 in5.1 mm
07:00 AM 43.2°F6.2°C 41.3°F5.2°C 93% 8.0 mph NE12.9 kmh NE 14.0 mph22.5 kmh 29.15 in987.1 mb 0.04 in1.0 mm 0.00 in0.0 mm 0.21 in5.3 mm
07:15 AM 43.3°F6.3°C 41.5°F5.3°C 93% 8.0 mph NE12.9 kmh NE 18.0 mph29.0 kmh 29.15 in987.1 mb 0.04 in1.0 mm 0.00 in0.0 mm 0.22 in5.6 mm
07:30 AM 43.3°F6.3°C 41.5°F5.3°C 93% 8.0 mph NE12.9 kmh NE 16.0 mph25.7 kmh 29.16 in987.5 mb 0.05 in1.3 mm 0.04 in1.0 mm 0.24 in6.1 mm
07:45 AM 43.5°F6.4°C 41.6°F5.3°C 93% 8.0 mph NE12.9 kmh NE 14.0 mph22.5 kmh 29.16 in987.5 mb 0.06 in1.5 mm 0.04 in1.0 mm 0.26 in6.6 mm
08:00 AM 43.9°F6.6°C 42.0°F5.6°C 93% 8.0 mph NE12.9 kmh NE 15.0 mph24.1 kmh 29.16 in987.5 mb 0.07 in1.8 mm 0.01 in0.3 mm 0.28 in7.1 mm
08:15 AM 44.1°F6.7°C 42.2°F5.7°C 93% 6.0 mph NE9.7 kmh NE 14.0 mph22.5 kmh 29.17 in987.8 mb 0.08 in2.0 mm 0.04 in1.0 mm 0.30 in7.6 mm
08:30 AM 44.1°F6.7°C 42.2°F5.7°C 93% 9.0 mph NE14.5 kmh NE 15.0 mph24.1 kmh 29.17 in987.8 mb 0.07 in1.8 mm 0.00 in0.0 mm 0.31 in7.9 mm
08:45 AM 44.1°F6.7°C 42.2°F5.7°C 93% 8.0 mph NE12.9 kmh NE 14.0 mph22.5 kmh 29.17 in987.8 mb 0.05 in1.3 mm 0.00 in0.0 mm 0.31 in7.9 mm
09:00 AM 44.2°F6.8°C 42.3°F5.7°C 93% 7.0 mph NE11.3 kmh NE 12.0 mph19.3 kmh 29.18 in988.1 mb 0.03 in0.8 mm 0.00 in0.0 mm 0.31 in7.9 mm
09:15 AM 44.4°F6.9°C 42.5°F5.8°C 93% 5.0 mph NE8.0 kmh NE 12.0 mph19.3 kmh 29.18 in988.1 mb 0.01 in0.3 mm 0.00 in0.0 mm 0.31 in7.9 mm
09:30 AM 44.8°F7.1°C 42.6°F5.9°C 92% 6.0 mph NE9.7 kmh NE 11.0 mph17.7 kmh 29.18 in988.1 mb 0.00 in0.0 mm 0.00 in0.0 mm 0.31 in7.9 mm
09:45 AM 44.8°F7.1°C 42.6°F5.9°C 92% 7.0 mph NE11.3 kmh NE 13.0 mph20.9 kmh 29.19 in988.5 mb 0.00 in0.0 mm 0.00 in0.0 mm 0.31 in7.9 mm
10:00 AM 45.0°F7.2°C 42.8°F6.0°C 92% 7.0 mph NE11.3 kmh NE 14.0 mph22.5 kmh 29.19 in988.5 mb 0.01 in0.3 mm 0.01 in0.3 mm 0.32 in8.1 mm
10:15 AM 45.0°F7.2°C 42.8°F6.0°C 92% 6.0 mph NE9.7 kmh NE 13.0 mph20.9 kmh 29.20 in988.8 mb 0.01 in0.3 mm 0.00 in0.0 mm 0.32 in8.1 mm
10:30 AM 45.1°F7.3°C 42.7°F5.9°C 91% 8.0 mph NE12.9 kmh NE 15.0 mph24.1 kmh 29.20 in988.8 mb 0.02 in0.5 mm 0.04 in1.0 mm 0.33 in8.4 mm
10:45 AM 45.1°F7.3°C 42.7°F5.9°C 91% 7.0 mph NE11.3 kmh NE 15.0 mph24.1 kmh 29.21 in989.2 mb 0.02 in0.5 mm 0.00 in0.0 mm 0.33 in8.4 mm
11:00 AM 45.1°F7.3°C 42.7°F5.9°C 91% 9.0 mph NE14.5 kmh NE 15.0 mph24.1 kmh 29.21 in989.2 mb 0.01 in0.3 mm 0.00 in0.0 mm 0.33 in8.4 mm
11:15 AM 45.1°F7.3°C 42.7°F5.9°C 91% 5.0 mph NE8.0 kmh NE 12.0 mph19.3 kmh 29.22 in989.5 mb 0.01 in0.3 mm 0.00 in0.0 mm 0.33 in8.4 mm
11:30 AM 45.3°F7.4°C 42.8°F6.0°C 91% 6.0 mph NE9.7 kmh NE 13.0 mph20.9 kmh 29.23 in989.8 mb 0.00 in0.0 mm 0.00 in0.0 mm 0.33 in8.4 mm
11:45 AM 45.3°F7.4°C 42.8°F6.0°C 91% 5.0 mph NE8.0 kmh NE 13.0 mph20.9 kmh 29.23 in989.8 mb 0.01 in0.3 mm 0.04 in1.0 mm 0.34 in8.6 mm
12:00 PM 45.7°F7.6°C 43.2°F6.2°C 91% 6.0 mph NE9.7 kmh NE 11.0 mph17.7 kmh 29.23 in989.8 mb 0.01 in0.3 mm 0.00 in0.0 mm 0.34 in8.6 mm
12:15 PM 45.9°F7.7°C 43.1°F6.2°C 90% 6.0 mph NE9.7 kmh NE 11.0 mph17.7 kmh 29.23 in989.8 mb 0.01 in0.3 mm 0.00 in0.0 mm 0.34 in8.6 mm
12:30 PM 45.9°F7.7°C 43.1°F6.2°C 90% 7.0 mph NE11.3 kmh NE 13.0 mph20.9 kmh 29.24 in990.2 mb 0.01 in0.3 mm 0.00 in0.0 mm 0.34 in8.6 mm
12:45 PM 45.9°F7.7°C 43.1°F6.2°C 90% 4.0 mph NE6.4 kmh NE 7.0 mph11.3 kmh 29.24 in990.2 mb 0.00 in0.0 mm 0.00 in0.0 mm 0.34 in8.6 mm
01:00 PM 46.0°F7.8°C 43.3°F6.3°C 90% 4.0 mph NE6.4 kmh NE 9.0 mph14.5 kmh 29.24 in990.2 mb 0.00 in0.0 mm 0.00 in0.0 mm 0.34 in8.6 mm
01:15 PM 46.2°F7.9°C 43.4°F6.3°C 90% 6.0 mph NE9.7 kmh NE 10.0 mph16.1 kmh 29.25 in990.5 mb 0.00 in0.0 mm 0.00 in0.0 mm 0.34 in8.6 mm
01:30 PM 46.6°F8.1°C 43.5°F6.4°C 89% 5.0 mph NE8.0 kmh NE 10.0 mph16.1 kmh 29.25 in990.5 mb 0.00 in0.0 mm 0.00 in0.0 mm 0.34 in8.6 mm
01:45 PM 46.8°F8.2°C 43.7°F6.5°C 89% 3.0 mph NE4.8 kmh NE 8.0 mph12.9 kmh 29.25 in990.5 mb 0.00 in0.0 mm 0.00 in0.0 mm 0.34 in8.6 mm
02:00 PM 46.9°F8.3°C 43.6°F6.4°C 88% 4.0 mph NE6.4 kmh NE 8.0 mph12.9 kmh 29.26 in990.9 mb 0.00 in0.0 mm 0.00 in0.0 mm 0.34 in8.6 mm
02:15 PM 47.1°F8.4°C 43.7°F6.5°C 88% 5.0 mph NE8.0 kmh NE 11.0 mph17.7 kmh 29.26 in990.9 mb 0.00 in0.0 mm 0.00 in0.0 mm 0.34 in8.6 mm
02:30 PM 47.1°F8.4°C 43.4°F6.3°C 87% 6.0 mph NE9.7 kmh NE 12.0 mph19.3 kmh 29.27 in991.2 mb 0.00 in0.0 mm 0.00 in0.0 mm 0.34 in8.6 mm
02:45 PM 46.9°F8.3°C 43.3°F6.3°C 87% 7.0 mph NNE11.3 kmh NNE 16.0 mph25.7 kmh 29.28 in991.5 mb 0.00 in0.0 mm 0.00 in0.0 mm 0.34 in8.6 mm
03:00 PM 46.6°F8.1°C 42.9°F6.1°C 87% 6.0 mph N9.7 kmh N 11.0 mph17.7 kmh 29.28 in991.5 mb 0.00 in0.0 mm 0.00 in0.0 mm 0.34 in8.6 mm
03:15 PM 46.2°F7.9°C 42.9°F6.1°C 88% 6.0 mph NNE9.7 kmh NNE 12.0 mph19.3 kmh 29.29 in991.9 mb 0.00 in0.0 mm 0.00 in0.0 mm 0.34 in8.6 mm
03:30 PM 46.2°F7.9°C 42.6°F5.9°C 87% 6.0 mph NNE9.7 kmh NNE 12.0 mph19.3 kmh 29.30 in992.2 mb 0.00 in0.0 mm 0.00 in0.0 mm 0.34 in8.6 mm
03:45 PM 46.0°F7.8°C 42.4°F5.8°C 87% 6.0 mph N9.7 kmh N 14.0 mph22.5 kmh 29.30 in992.2 mb 0.00 in0.0 mm 0.00 in0.0 mm 0.34 in8.6 mm
04:00 PM 45.9°F7.7°C 42.2°F5.7°C 87% 6.0 mph N9.7 kmh N 10.0 mph16.1 kmh 29.31 in992.6 mb 0.00 in0.0 mm 0.00 in0.0 mm 0.34 in8.6 mm
04:15 PM 45.7°F7.6°C 42.0°F5.6°C 87% 7.0 mph N11.3 kmh N 12.0 mph19.3 kmh 29.32 in992.9 mb 0.00 in0.0 mm 0.00 in0.0 mm 0.34 in8.6 mm
04:30 PM 45.3°F7.4°C 41.7°F5.4°C 87% 7.0 mph N11.3 kmh N 16.0 mph25.7 kmh 29.32 in992.9 mb 0.00 in0.0 mm 0.00 in0.0 mm 0.34 in8.6 mm
04:45 PM 45.0°F7.2°C 41.3°F5.2°C 87% 8.0 mph N12.9 kmh N 14.0 mph22.5 kmh 29.33 in993.2 mb 0.00 in0.0 mm 0.00 in0.0 mm 0.34 in8.6 mm
05:00 PM 44.8°F7.1°C 41.4°F5.2°C 88% 6.0 mph N9.7 kmh N 14.0 mph22.5 kmh 29.35 in993.9 mb 0.00 in0.0 mm 0.00 in0.0 mm 0.34 in8.6 mm
05:15 PM 44.4°F6.9°C 41.4°F5.2°C 89% 5.0 mph N8.0 kmh N 10.0 mph16.1 kmh 29.35 in993.9 mb 0.00 in0.0 mm 0.00 in0.0 mm 0.34 in8.6 mm
05:30 PM 44.2°F6.8°C 41.5°F5.3°C 90% 5.0 mph N8.0 kmh N 12.0 mph19.3 kmh 29.36 in994.2 mb 0.01 in0.3 mm 0.04 in1.0 mm 0.35 in8.9 mm
05:45 PM 43.9°F6.6°C 41.4°F5.2°C 91% 6.0 mph NNW9.7 kmh NNW 13.0 mph20.9 kmh 29.38 in994.9 mb 0.02 in0.5 mm 0.04 in1.0 mm 0.36 in9.1 mm
06:00 PM 43.3°F6.3°C 40.9°F4.9°C 91% 6.0 mph N9.7 kmh N 11.0 mph17.7 kmh 29.38 in994.9 mb 0.03 in0.8 mm 0.01 in0.3 mm 0.37 in9.4 mm
06:15 PM 43.3°F6.3°C 40.9°F4.9°C 91% 3.0 mph NNW4.8 kmh NNW 14.0 mph22.5 kmh 29.39 in995.3 mb 0.03 in0.8 mm 0.00 in0.0 mm 0.37 in9.4 mm
06:30 PM 43.2°F6.2°C 40.7°F4.8°C 91% 6.0 mph NNW9.7 kmh NNW 11.0 mph17.7 kmh 29.40 in995.6 mb 0.02 in0.5 mm 0.00 in0.0 mm 0.37 in9.4 mm
06:45 PM 42.8°F6.0°C 40.4°F4.7°C 91% 5.0 mph NNW8.0 kmh NNW 10.0 mph16.1 kmh 29.41 in995.9 mb 0.01 in0.3 mm 0.00 in0.0 mm 0.37 in9.4 mm
07:00 PM 42.6°F5.9°C 40.5°F4.7°C 92% 4.0 mph NW6.4 kmh NW 9.0 mph14.5 kmh 29.42 in996.3 mb 0.00 in0.0 mm 0.00 in0.0 mm 0.37 in9.4 mm
07:15 PM 42.8°F6.0°C 40.6°F4.8°C 92% 5.0 mph NW8.0 kmh NW 10.0 mph16.1 kmh 29.42 in996.3 mb 0.01 in0.3 mm 0.04 in1.0 mm 0.38 in9.7 mm
07:30 PM 42.4°F5.8°C 40.3°F4.6°C 92% 6.0 mph NNW9.7 kmh NNW 10.0 mph16.1 kmh 29.43 in996.6 mb 0.01 in0.3 mm 0.00 in0.0 mm 0.38 in9.7 mm
07:45 PM 42.4°F5.8°C 40.3°F4.6°C 92% 4.0 mph NW6.4 kmh NW 6.0 mph9.7 kmh 29.44 in997.0 mb 0.01 in0.3 mm 0.00 in0.0 mm 0.38 in9.7 mm
08:00 PM 42.4°F5.8°C 40.6°F4.8°C 93% 4.0 mph NW6.4 kmh NW 7.0 mph11.3 kmh 29.44 in997.0 mb 0.01 in0.3 mm 0.00 in0.0 mm 0.38 in9.7 mm
08:15 PM 42.3°F5.7°C 40.4°F4.7°C 93% 4.0 mph NW6.4 kmh NW 9.0 mph14.5 kmh 29.45 in997.3 mb 0.00 in0.0 mm 0.00 in0.0 mm 0.38 in9.7 mm
08:30 PM 42.3°F5.7°C 40.4°F4.7°C 93% 4.0 mph NNW6.4 kmh NNW 8.0 mph12.9 kmh 29.46 in997.6 mb 0.00 in0.0 mm 0.00 in0.0 mm 0.38 in9.7 mm
08:45 PM 42.1°F5.6°C 40.2°F4.6°C 93% 4.0 mph NNW6.4 kmh NNW 7.0 mph11.3 kmh 29.47 in998.0 mb 0.00 in0.0 mm 0.00 in0.0 mm 0.38 in9.7 mm
09:00 PM 42.1°F5.6°C 39.9°F4.4°C 92% 3.0 mph NW4.8 kmh NW 5.0 mph8.0 kmh 29.48 in998.3 mb 0.00 in0.0 mm 0.00 in0.0 mm 0.38 in9.7 mm
09:15 PM 42.1°F5.6°C 39.9°F4.4°C 92% 3.0 mph NW4.8 kmh NW 6.0 mph9.7 kmh 29.48 in998.3 mb 0.00 in0.0 mm 0.00 in0.0 mm 0.38 in9.7 mm
09:30 PM 42.1°F5.6°C 39.9°F4.4°C 92% 3.0 mph NW4.8 kmh NW 7.0 mph11.3 kmh 29.49 in998.6 mb 0.00 in0.0 mm 0.00 in0.0 mm 0.38 in9.7 mm
09:45 PM 42.1°F5.6°C 40.2°F4.6°C 93% 3.0 mph NW4.8 kmh NW 7.0 mph11.3 kmh 29.49 in998.6 mb 0.00 in0.0 mm 0.00 in0.0 mm 0.38 in9.7 mm
10:00 PM 42.1°F5.6°C 40.2°F4.6°C 93% 2.0 mph NNW3.2 kmh NNW 5.0 mph8.0 kmh 29.50 in999.0 mb 0.00 in0.0 mm 0.00 in0.0 mm 0.38 in9.7 mm
10:15 PM 41.7°F5.4°C 39.6°F4.2°C 92% 2.0 mph NW3.2 kmh NW 5.0 mph8.0 kmh 29.51 in999.3 mb 0.00 in0.0 mm 0.00 in0.0 mm 0.38 in9.7 mm
10:30 PM 41.9°F5.5°C 39.7°F4.3°C 92% 3.0 mph NW4.8 kmh NW 5.0 mph8.0 kmh 29.52 in999.7 mb 0.00 in0.0 mm 0.00 in0.0 mm 0.38 in9.7 mm
10:45 PM 42.1°F5.6°C 39.9°F4.4°C 92% 2.0 mph NW3.2 kmh NW 5.0 mph8.0 kmh 29.52 in999.7 mb 0.00 in0.0 mm 0.00 in0.0 mm 0.38 in9.7 mm
11:00 PM 41.9°F5.5°C 39.7°F4.3°C 92% 2.0 mph NW3.2 kmh NW 4.0 mph6.4 kmh 29.52 in999.7 mb 0.00 in0.0 mm 0.00 in0.0 mm 0.38 in9.7 mm
11:15 PM 41.9°F5.5°C 39.7°F4.3°C 92% 2.0 mph WNW3.2 kmh WNW 3.0 mph4.8 kmh 29.53 in1000.0 mb 0.00 in0.0 mm 0.00 in0.0 mm 0.38 in9.7 mm
11:30 PM 41.9°F5.5°C 39.7°F4.3°C 92% 1.0 mph NW1.6 kmh NW 4.0 mph6.4 kmh 29.53 in1000.0 mb 0.00 in0.0 mm 0.00 in0.0 mm 0.38 in9.7 mm
11:45 PM 41.9°F5.5°C 40.0°F4.4°C 93% 3.0 mph WNW4.8 kmh WNW 5.0 mph8.0 kmh 29.53 in1000.0 mb 0.00 in0.0 mm 0.00 in0.0 mm 0.38 in9.7 mm